sensor_id;sensor_type;location;lat;lon;timestamp;pressure;altitude;pressure_sealevel;temperature;humidity
63033;BME280;49121;38.932;-9.018;2023-04-09T00:01:34;111992.50;;;-145.11;55.90
63033;BME280;49121;38.932;-9.018;2023-04-09T00:03:53;111992.50;;;-145.11;55.46
63033;BME280;49121;38.932;-9.018;2023-04-09T00:05:54;111992.50;;;-145.11;55.12
63033;BME280;49121;38.932;-9.018;2023-04-09T00:07:55;111992.50;;;-145.11;54.55
63033;BME280;49121;38.932;-9.018;2023-04-09T00:09:56;111992.50;;;-145.11;54.33
63033;BME280;49121;38.932;-9.018;2023-04-09T00:11:56;111992.50;;;-145.11;55.02
63033;BME280;49121;38.932;-9.018;2023-04-09T00:14:16;111992.50;;;-145.11;55.75
63033;BME280;49121;38.932;-9.018;2023-04-09T00:16:16;111992.50;;;-145.11;56.10
63033;BME280;49121;38.932;-9.018;2023-04-09T00:18:17;111992.50;;;-145.11;56.24
63033;BME280;49121;38.932;-9.018;2023-04-09T00:22:55;111992.50;;;-145.11;56.33
63033;BME280;49121;38.932;-9.018;2023-04-09T00:24:57;111992.50;;;-145.11;56.33
63033;BME280;49121;38.932;-9.018;2023-04-09T00:26:57;111992.50;;;-145.11;56.10
63033;BME280;49121;38.932;-9.018;2023-04-09T00:31:17;111992.50;;;-145.11;56.27
63033;BME280;49121;38.932;-9.018;2023-04-09T00:33:36;111992.50;;;-145.11;56.38
63033;BME280;49121;38.932;-9.018;2023-04-09T00:35:37;111992.50;;;-145.11;56.70
63033;BME280;49121;38.932;-9.018;2023-04-09T00:37:37;111992.50;;;-145.11;56.78
63033;BME280;49121;38.932;-9.018;2023-04-09T00:39:56;111992.50;;;-145.11;56.80
63033;BME280;49121;38.932;-9.018;2023-04-09T00:41:57;111992.50;;;-145.11;56.75
63033;BME280;49121;38.932;-9.018;2023-04-09T00:43:58;111992.50;;;-145.11;56.44
63033;BME280;49121;38.932;-9.018;2023-04-09T00:45:59;111992.50;;;-145.11;56.21
63033;BME280;49121;38.932;-9.018;2023-04-09T00:47:59;111992.50;;;-145.11;56.22
63033;BME280;49121;38.932;-9.018;2023-04-09T00:50:00;111992.50;;;-145.11;56.30
63033;BME280;49121;38.932;-9.018;2023-04-09T00:52:01;111992.50;;;-145.11;56.13
63033;BME280;49121;38.932;-9.018;2023-04-09T00:56:39;111992.50;;;-145.11;56.04
63033;BME280;49121;38.932;-9.018;2023-04-09T00:58:55;111992.50;;;-145.11;56.38
63033;BME280;49121;38.932;-9.018;2023-04-09T01:00:56;111992.50;;;-145.11;56.59
63033;BME280;49121;38.932;-9.018;2023-04-09T01:02:56;111992.50;;;-145.11;56.41
63033;BME280;49121;38.932;-9.018;2023-04-09T01:04:58;111992.50;;;-145.11;56.45
63033;BME280;49121;38.932;-9.018;2023-04-09T01:14:24;111992.50;;;-145.11;56.44
63033;BME280;49121;38.932;-9.018;2023-04-09T01:16:28;111992.50;;;-145.11;56.32
63033;BME280;49121;38.932;-9.018;2023-04-09T01:18:56;111992.50;;;-145.11;56.38
63033;BME280;49121;38.932;-9.018;2023-04-09T01:21:04;111992.50;;;-145.11;56.19
63033;BME280;49121;38.932;-9.018;2023-04-09T01:30:17;111992.50;;;-145.11;55.73
63033;BME280;49121;38.932;-9.018;2023-04-09T01:32:19;111992.50;;;-145.11;55.59
63033;BME280;49121;38.932;-9.018;2023-04-09T01:34:20;111992.50;;;-145.11;55.37
63033;BME280;49121;38.932;-9.018;2023-04-09T01:36:21;111992.50;;;-145.11;55.08
63033;BME280;49121;38.932;-9.018;2023-04-09T01:38:23;111992.50;;;-145.11;54.53
63033;BME280;49121;38.932;-9.018;2023-04-09T01:40:25;111992.50;;;-145.11;54.09
63033;BME280;49121;38.932;-9.018;2023-04-09T01:42:26;111992.50;;;-145.11;53.69
63033;BME280;49121;38.932;-9.018;2023-04-09T01:44:26;111992.50;;;-145.11;54.01
63033;BME280;49121;38.932;-9.018;2023-04-09T01:46:32;111992.50;;;-145.11;53.95
63033;BME280;49121;38.932;-9.018;2023-04-09T01:48:34;111992.50;;;-145.11;53.46
63033;BME280;49121;38.932;-9.018;2023-04-09T01:50:34;111992.50;;;-145.11;53.38
63033;BME280;49121;38.932;-9.018;2023-04-09T01:52:35;111992.50;;;-145.11;52.90
63033;BME280;49121;38.932;-9.018;2023-04-09T01:54:54;111992.50;;;-145.11;51.71
63033;BME280;49121;38.932;-9.018;2023-04-09T01:56:59;111992.50;;;-145.11;51.02
63033;BME280;49121;38.932;-9.018;2023-04-09T01:59:00;111992.50;;;-145.11;51.01
63033;BME280;49121;38.932;-9.018;2023-04-09T02:01:11;111992.50;;;-145.11;51.25
63033;BME280;49121;38.932;-9.018;2023-04-09T02:03:37;111992.50;;;-145.11;51.45
63033;BME280;49121;38.932;-9.018;2023-04-09T02:06:35;111992.50;;;-145.11;51.56
63033;BME280;49121;38.932;-9.018;2023-04-09T02:08:18;111992.50;;;-145.11;50.02
63033;BME280;49121;38.932;-9.018;2023-04-09T02:10:20;111992.50;;;-145.11;49.91
63033;BME280;49121;38.932;-9.018;2023-04-09T02:12:22;111992.50;;;-145.11;50.50
63033;BME280;49121;38.932;-9.018;2023-04-09T02:14:23;111992.50;;;-145.11;50.62
63033;BME280;49121;38.932;-9.018;2023-04-09T02:16:25;111992.50;;;-145.11;50.49
63033;BME280;49121;38.932;-9.018;2023-04-09T02:18:27;111992.50;;;-145.11;50.77
63033;BME280;49121;38.932;-9.018;2023-04-09T02:20:29;111992.50;;;-145.11;51.19
63033;BME280;49121;38.932;-9.018;2023-04-09T02:25:07;111992.50;;;-145.11;51.22
63033;BME280;49121;38.932;-9.018;2023-04-09T02:27:07;111992.50;;;-145.11;51.37
63033;BME280;49121;38.932;-9.018;2023-04-09T02:29:08;111992.50;;;-145.11;51.16
63033;BME280;49121;38.932;-9.018;2023-04-09T02:31:08;111992.50;;;-145.11;51.09
63033;BME280;49121;38.932;-9.018;2023-04-09T02:33:10;111992.50;;;-145.11;50.99
63033;BME280;49121;38.932;-9.018;2023-04-09T02:35:11;111992.50;;;-145.11;50.95
63033;BME280;49121;38.932;-9.018;2023-04-09T02:37:11;111992.50;;;-145.11;50.71
63033;BME280;49121;38.932;-9.018;2023-04-09T02:44:08;111992.50;;;-145.11;50.00
63033;BME280;49121;38.932;-9.018;2023-04-09T02:46:09;111992.50;;;-145.11;50.14
63033;BME280;49121;38.932;-9.018;2023-04-09T02:48:10;111992.50;;;-145.11;50.42
63033;BME280;49121;38.932;-9.018;2023-04-09T02:50:10;111992.50;;;-145.11;50.98
63033;BME280;49121;38.932;-9.018;2023-04-09T02:52:17;111992.50;;;-145.11;51.33
63033;BME280;49121;38.932;-9.018;2023-04-09T02:54:19;111992.50;;;-145.11;51.05
63033;BME280;49121;38.932;-9.018;2023-04-09T02:59:01;111992.50;;;-145.11;51.21
63033;BME280;49121;38.932;-9.018;2023-04-09T03:01:20;111992.50;;;-145.11;51.32
63033;BME280;49121;38.932;-9.018;2023-04-09T03:03:39;111992.50;;;-145.11;51.67
63033;BME280;49121;38.932;-9.018;2023-04-09T03:05:41;111992.50;;;-145.11;51.87
63033;BME280;49121;38.932;-9.018;2023-04-09T03:07:41;111992.50;;;-145.11;51.95
63033;BME280;49121;38.932;-9.018;2023-04-09T03:09:42;111992.50;;;-145.11;51.96
63033;BME280;49121;38.932;-9.018;2023-04-09T03:12:01;111992.50;;;-145.11;51.75
63033;BME280;49121;38.932;-9.018;2023-04-09T03:16:57;111992.50;;;-145.11;52.03
63033;BME280;49121;38.932;-9.018;2023-04-09T03:18:58;111992.50;;;-145.11;52.24
63033;BME280;49121;38.932;-9.018;2023-04-09T03:21:05;111992.50;;;-145.11;52.30
63033;BME280;49121;38.932;-9.018;2023-04-09T03:23:07;111992.50;;;-145.11;52.54
63033;BME280;49121;38.932;-9.018;2023-04-09T03:25:16;111992.50;;;-145.11;52.52
63033;BME280;49121;38.932;-9.018;2023-04-09T03:27:20;111992.50;;;-145.11;52.93
63033;BME280;49121;38.932;-9.018;2023-04-09T03:29:25;111992.50;;;-145.11;53.07
63033;BME280;49121;38.932;-9.018;2023-04-09T03:31:26;111992.50;;;-145.11;53.01
63033;BME280;49121;38.932;-9.018;2023-04-09T03:33:26;111992.50;;;-145.11;52.66
63033;BME280;49121;38.932;-9.018;2023-04-09T03:35:29;111992.50;;;-145.11;52.46
63033;BME280;49121;38.932;-9.018;2023-04-09T03:37:32;111992.50;;;-145.11;52.21
63033;BME280;49121;38.932;-9.018;2023-04-09T03:42:10;111992.50;;;-145.11;53.05
63033;BME280;49121;38.932;-9.018;2023-04-09T03:44:19;111992.50;;;-145.11;53.66
63033;BME280;49121;38.932;-9.018;2023-04-09T03:46:38;111992.50;;;-145.11;53.30
63033;BME280;49121;38.932;-9.018;2023-04-09T03:48:39;111992.50;;;-145.11;53.68
63033;BME280;49121;38.932;-9.018;2023-04-09T03:50:40;111992.50;;;-145.11;53.63
63033;BME280;49121;38.932;-9.018;2023-04-09T03:52:43;111992.50;;;-145.11;53.64
63033;BME280;49121;38.932;-9.018;2023-04-09T03:54:44;111992.50;;;-145.11;53.45
63033;BME280;49121;38.932;-9.018;2023-04-09T03:56:50;111992.50;;;-145.11;53.13
63033;BME280;49121;38.932;-9.018;2023-04-09T03:58:55;111992.50;;;-145.11;53.35
63033;BME280;49121;38.932;-9.018;2023-04-09T04:01:04;111992.50;;;-145.11;53.59
63033;BME280;49121;38.932;-9.018;2023-04-09T04:03:12;111992.50;;;-145.11;53.27
63033;BME280;49121;38.932;-9.018;2023-04-09T04:05:32;111992.50;;;-145.11;53.56
63033;BME280;49121;38.932;-9.018;2023-04-09T04:07:36;111992.50;;;-145.11;54.01
63033;BME280;49121;38.932;-9.018;2023-04-09T04:09:42;111992.50;;;-145.11;53.87
63033;BME280;49121;38.932;-9.018;2023-04-09T04:11:46;111992.50;;;-145.11;53.66
63033;BME280;49121;38.932;-9.018;2023-04-09T04:13:47;111992.50;;;-145.11;53.53
63033;BME280;49121;38.932;-9.018;2023-04-09T04:15:47;111992.50;;;-145.11;53.33
63033;BME280;49121;38.932;-9.018;2023-04-09T04:17:50;111992.50;;;-145.11;53.84
63033;BME280;49121;38.932;-9.018;2023-04-09T04:22:35;111992.50;;;-145.11;54.21
63033;BME280;49121;38.932;-9.018;2023-04-09T04:24:54;111992.50;;;-145.11;54.29
63033;BME280;49121;38.932;-9.018;2023-04-09T04:26:58;111992.50;;;-145.11;53.89
63033;BME280;49121;38.932;-9.018;2023-04-09T04:29:18;111992.50;;;-145.11;53.05
63033;BME280;49121;38.932;-9.018;2023-04-09T04:31:30;111992.50;;;-145.11;52.72
63033;BME280;49121;38.932;-9.018;2023-04-09T04:36:10;111992.50;;;-145.11;52.71
63033;BME280;49121;38.932;-9.018;2023-04-09T04:38:24;111992.50;;;-145.11;52.88
63033;BME280;49121;38.932;-9.018;2023-04-09T04:40:26;111992.50;;;-145.11;53.15
63033;BME280;49121;38.932;-9.018;2023-04-09T04:42:34;111992.50;;;-145.11;53.29
63033;BME280;49121;38.932;-9.018;2023-04-09T04:44:44;111992.50;;;-145.11;53.31
63033;BME280;49121;38.932;-9.018;2023-04-09T04:47:10;111992.50;;;-145.11;53.20
63033;BME280;49121;38.932;-9.018;2023-04-09T04:49:10;111992.50;;;-145.11;53.66
63033;BME280;49121;38.932;-9.018;2023-04-09T04:51:18;111992.50;;;-145.11;53.99
63033;BME280;49121;38.932;-9.018;2023-04-09T04:53:31;111992.50;;;-145.11;54.49
63033;BME280;49121;38.932;-9.018;2023-04-09T04:55:50;111992.50;;;-145.11;54.92
63033;BME280;49121;38.932;-9.018;2023-04-09T04:57:57;111992.50;;;-145.11;55.06
63033;BME280;49121;38.932;-9.018;2023-04-09T05:00:03;111992.50;;;-145.11;55.25
63033;BME280;49121;38.932;-9.018;2023-04-09T05:02:22;111992.50;;;-145.11;55.20
63033;BME280;49121;38.932;-9.018;2023-04-09T05:04:46;111992.50;;;-145.11;55.32
63033;BME280;49121;38.932;-9.018;2023-04-09T05:06:49;111992.50;;;-145.11;55.58
63033;BME280;49121;38.932;-9.018;2023-04-09T05:08:54;111992.50;;;-145.11;56.28
63033;BME280;49121;38.932;-9.018;2023-04-09T05:10:59;111992.50;;;-145.11;56.35
63033;BME280;49121;38.932;-9.018;2023-04-09T05:13:06;111992.50;;;-145.11;56.22
63033;BME280;49121;38.932;-9.018;2023-04-09T05:15:10;111992.50;;;-145.11;56.25
63033;BME280;49121;38.932;-9.018;2023-04-09T05:24:08;111992.50;;;-145.11;57.54
63033;BME280;49121;38.932;-9.018;2023-04-09T05:26:27;111992.50;;;-145.11;57.99
63033;BME280;49121;38.932;-9.018;2023-04-09T05:28:46;111992.50;;;-145.11;58.46
63033;BME280;49121;38.932;-9.018;2023-04-09T05:31:05;111992.50;;;-145.11;59.08
63033;BME280;49121;38.932;-9.018;2023-04-09T05:33:30;111992.50;;;-145.11;59.19
63033;BME280;49121;38.932;-9.018;2023-04-09T05:35:40;111992.50;;;-145.11;59.50
63033;BME280;49121;38.932;-9.018;2023-04-09T05:37:40;111992.50;;;-145.11;59.64
63033;BME280;49121;38.932;-9.018;2023-04-09T05:39:40;111992.50;;;-145.11;59.72
63033;BME280;49121;38.932;-9.018;2023-04-09T05:41:42;111992.50;;;-145.11;59.95
63033;BME280;49121;38.932;-9.018;2023-04-09T05:44:06;111992.50;;;-145.11;59.94
63033;BME280;49121;38.932;-9.018;2023-04-09T05:46:07;111992.50;;;-145.11;59.66
63033;BME280;49121;38.932;-9.018;2023-04-09T05:50:27;111992.50;;;-145.11;60.68
63033;BME280;49121;38.932;-9.018;2023-04-09T05:54:49;111992.50;;;-145.11;61.77
63033;BME280;49121;38.932;-9.018;2023-04-09T05:56:55;111992.50;;;-145.11;61.69
63033;BME280;49121;38.932;-9.018;2023-04-09T06:01:33;111992.50;;;-145.11;62.46
63033;BME280;49121;38.932;-9.018;2023-04-09T06:03:34;111992.50;;;-145.11;63.02
63033;BME280;49121;38.932;-9.018;2023-04-09T06:05:49;111992.50;;;-145.11;63.10
63033;BME280;49121;38.932;-9.018;2023-04-09T06:07:50;111992.50;;;-145.11;63.65
63033;BME280;49121;38.932;-9.018;2023-04-09T06:09:50;111992.50;;;-145.11;63.31
63033;BME280;49121;38.932;-9.018;2023-04-09T06:11:51;111992.50;;;-145.11;63.67
63033;BME280;49121;38.932;-9.018;2023-04-09T06:13:51;111992.50;;;-145.11;64.30
63033;BME280;49121;38.932;-9.018;2023-04-09T06:15:52;111992.50;;;-145.11;64.42
63033;BME280;49121;38.932;-9.018;2023-04-09T06:17:52;111992.50;;;-145.11;64.27
63033;BME280;49121;38.932;-9.018;2023-04-09T06:19:55;111992.50;;;-145.11;64.57
63033;BME280;49121;38.932;-9.018;2023-04-09T06:24:33;111992.50;;;-145.11;64.59
63033;BME280;49121;38.932;-9.018;2023-04-09T06:26:34;111992.50;;;-145.11;64.46
63033;BME280;49121;38.932;-9.018;2023-04-09T06:38:43;111992.50;;;-145.11;63.73
63033;BME280;49121;38.932;-9.018;2023-04-09T06:40:43;111992.50;;;-145.11;63.12
63033;BME280;49121;38.932;-9.018;2023-04-09T06:42:44;111992.50;;;-145.11;63.24
63033;BME280;49121;38.932;-9.018;2023-04-09T06:45:00;111992.50;;;-145.11;62.93
63033;BME280;49121;38.932;-9.018;2023-04-09T06:47:01;111992.50;;;-145.11;62.32
63033;BME280;49121;38.932;-9.018;2023-04-09T06:49:01;111992.50;;;-145.11;62.08
63033;BME280;49121;38.932;-9.018;2023-04-09T06:51:02;111992.50;;;-145.11;61.21
63033;BME280;49121;38.932;-9.018;2023-04-09T06:53:02;111992.50;;;-145.11;60.68
63033;BME280;49121;38.932;-9.018;2023-04-09T06:55:03;111992.50;;;-145.11;60.35
63033;BME280;49121;38.932;-9.018;2023-04-09T06:57:04;111992.50;;;-145.11;59.67
63033;BME280;49121;38.932;-9.018;2023-04-09T06:59:05;111992.50;;;-145.11;59.11
63033;BME280;49121;38.932;-9.018;2023-04-09T07:01:06;111992.50;;;-145.11;58.31
63033;BME280;49121;38.932;-9.018;2023-04-09T07:03:06;111992.50;;;-145.11;57.37
63033;BME280;49121;38.932;-9.018;2023-04-09T07:07:46;111992.50;;;-145.11;55.62
63033;BME280;49121;38.932;-9.018;2023-04-09T07:09:47;111992.50;;;-145.11;55.50
63033;BME280;49121;38.932;-9.018;2023-04-09T07:11:47;111992.50;;;-145.11;54.52
63033;BME280;49121;38.932;-9.018;2023-04-09T07:13:48;111992.50;;;-145.11;53.74
63033;BME280;49121;38.932;-9.018;2023-04-09T07:16:07;111992.50;;;-145.11;52.83
63033;BME280;49121;38.932;-9.018;2023-04-09T07:18:26;111992.50;;;-145.11;51.48
63033;BME280;49121;38.932;-9.018;2023-04-09T07:20:44;111992.50;;;-145.11;50.72
63033;BME280;49121;38.932;-9.018;2023-04-09T07:22:45;111992.50;;;-145.11;49.60
63033;BME280;49121;38.932;-9.018;2023-04-09T07:24:45;111992.50;;;-145.11;48.72
63033;BME280;49121;38.932;-9.018;2023-04-09T07:26:51;111992.50;;;-145.11;47.16
63033;BME280;49121;38.932;-9.018;2023-04-09T07:29:13;111992.50;;;-145.11;46.72
63033;BME280;49121;38.932;-9.018;2023-04-09T07:31:14;111992.50;;;-145.11;47.42
63033;BME280;49121;38.932;-9.018;2023-04-09T07:33:15;111992.50;;;-145.11;46.87
63033;BME280;49121;38.932;-9.018;2023-04-09T07:35:15;111992.50;;;-145.11;46.56
63033;BME280;49121;38.932;-9.018;2023-04-09T07:37:17;111992.50;;;-145.11;45.81
63033;BME280;49121;38.932;-9.018;2023-04-09T07:39:19;111992.50;;;-145.11;44.13
63033;BME280;49121;38.932;-9.018;2023-04-09T07:41:20;111992.50;;;-145.11;44.21
63033;BME280;49121;38.932;-9.018;2023-04-09T07:43:20;111992.50;;;-145.11;43.53
63033;BME280;49121;38.932;-9.018;2023-04-09T07:45:21;111992.50;;;-145.11;43.74
63033;BME280;49121;38.932;-9.018;2023-04-09T07:47:22;111992.50;;;-145.11;43.76
63033;BME280;49121;38.932;-9.018;2023-04-09T07:49:22;111992.50;;;-145.11;42.81
63033;BME280;49121;38.932;-9.018;2023-04-09T07:51:23;111992.50;;;-145.11;42.93
63033;BME280;49121;38.932;-9.018;2023-04-09T07:53:23;111992.50;;;-145.11;42.70
63033;BME280;49121;38.932;-9.018;2023-04-09T07:55:24;111992.50;;;-145.11;41.85
63033;BME280;49121;38.932;-9.018;2023-04-09T07:57:25;111992.50;;;-145.11;41.48
63033;BME280;49121;38.932;-9.018;2023-04-09T07:59:25;111992.50;;;-145.11;40.62
63033;BME280;49121;38.932;-9.018;2023-04-09T08:04:04;111992.50;;;-145.11;42.21
63033;BME280;49121;38.932;-9.018;2023-04-09T08:06:05;111992.50;;;-145.11;41.76
63033;BME280;49121;38.932;-9.018;2023-04-09T08:08:05;111992.50;;;-145.11;42.39
63033;BME280;49121;38.932;-9.018;2023-04-09T08:10:06;111992.50;;;-145.11;43.18
63033;BME280;49121;38.932;-9.018;2023-04-09T08:12:06;111992.50;;;-145.11;42.83
63033;BME280;49121;38.932;-9.018;2023-04-09T08:14:25;111992.50;;;-145.11;42.45
63033;BME280;49121;38.932;-9.018;2023-04-09T08:16:45;111992.50;;;-145.11;43.62
63033;BME280;49121;38.932;-9.018;2023-04-09T08:18:46;111992.50;;;-145.11;43.30
63033;BME280;49121;38.932;-9.018;2023-04-09T08:20:46;111992.50;;;-145.11;42.13
63033;BME280;49121;38.932;-9.018;2023-04-09T08:27:25;111992.50;;;-145.11;42.91
63033;BME280;49121;38.932;-9.018;2023-04-09T08:29:30;111992.50;;;-145.11;42.46
63033;BME280;49121;38.932;-9.018;2023-04-09T08:31:31;111992.50;;;-145.11;42.08
63033;BME280;49121;38.932;-9.018;2023-04-09T08:33:31;111992.50;;;-145.11;41.78
63033;BME280;49121;38.932;-9.018;2023-04-09T08:35:32;111992.50;;;-145.11;40.44
63033;BME280;49121;38.932;-9.018;2023-04-09T08:37:32;111992.50;;;-145.11;40.87
63033;BME280;49121;38.932;-9.018;2023-04-09T08:39:52;111992.50;;;-145.11;40.87
63033;BME280;49121;38.932;-9.018;2023-04-09T08:41:57;111992.50;;;-145.11;40.38
63033;BME280;49121;38.932;-9.018;2023-04-09T08:44:02;111992.50;;;-145.11;39.18
63033;BME280;49121;38.932;-9.018;2023-04-09T08:50:59;111992.50;;;-145.11;38.72
63033;BME280;49121;38.932;-9.018;2023-04-09T08:53:04;111992.50;;;-145.11;39.48
63033;BME280;49121;38.932;-9.018;2023-04-09T08:55:05;111992.50;;;-145.11;38.72
63033;BME280;49121;38.932;-9.018;2023-04-09T08:57:06;111992.50;;;-145.11;38.87
63033;BME280;49121;38.932;-9.018;2023-04-09T08:59:07;111992.50;;;-145.11;38.37
63033;BME280;49121;38.932;-9.018;2023-04-09T09:01:21;111992.50;;;-145.11;38.26
63033;BME280;49121;38.932;-9.018;2023-04-09T09:03:22;111992.50;;;-145.11;39.09
63033;BME280;49121;38.932;-9.018;2023-04-09T09:08:00;111992.50;;;-145.11;39.44
63033;BME280;49121;38.932;-9.018;2023-04-09T09:10:19;111992.50;;;-145.11;37.72
63033;BME280;49121;38.932;-9.018;2023-04-09T09:14:40;111992.50;;;-145.11;36.10
63033;BME280;49121;38.932;-9.018;2023-04-09T09:16:41;111992.50;;;-145.11;36.39
63033;BME280;49121;38.932;-9.018;2023-04-09T09:19:01;111992.50;;;-145.11;37.20
63033;BME280;49121;38.932;-9.018;2023-04-09T09:21:15;111992.50;;;-145.11;38.67
63033;BME280;49121;38.932;-9.018;2023-04-09T09:23:16;111992.50;;;-145.11;37.93
63033;BME280;49121;38.932;-9.018;2023-04-09T09:25:39;111992.50;;;-145.11;37.86
63033;BME280;49121;38.932;-9.018;2023-04-09T09:30:24;111992.50;;;-145.11;37.11
63033;BME280;49121;38.932;-9.018;2023-04-09T09:32:25;111992.50;;;-145.11;37.42
63033;BME280;49121;38.932;-9.018;2023-04-09T09:34:26;111992.50;;;-145.11;39.15
63033;BME280;49121;38.932;-9.018;2023-04-09T09:36:31;111992.50;;;-145.11;40.50
63033;BME280;49121;38.932;-9.018;2023-04-09T09:38:32;111992.50;;;-145.11;41.01
63033;BME280;49121;38.932;-9.018;2023-04-09T09:40:32;111992.50;;;-145.11;40.53
63033;BME280;49121;38.932;-9.018;2023-04-09T09:42:33;111992.50;;;-145.11;39.48
63033;BME280;49121;38.932;-9.018;2023-04-09T09:44:33;111992.50;;;-145.11;37.60
63033;BME280;49121;38.932;-9.018;2023-04-09T09:46:52;111992.50;;;-145.11;36.92
63033;BME280;49121;38.932;-9.018;2023-04-09T09:48:53;111992.50;;;-145.11;36.27
63033;BME280;49121;38.932;-9.018;2023-04-09T09:50:55;111992.50;;;-145.11;35.87
63033;BME280;49121;38.932;-9.018;2023-04-09T09:53:14;111992.50;;;-145.11;35.46
63033;BME280;49121;38.932;-9.018;2023-04-09T09:55:16;111992.50;;;-145.11;35.36
63033;BME280;49121;38.932;-9.018;2023-04-09T09:57:18;111992.50;;;-145.11;35.11
63033;BME280;49121;38.932;-9.018;2023-04-09T09:59:19;111992.50;;;-145.11;35.70
63033;BME280;49121;38.932;-9.018;2023-04-09T10:01:21;111992.50;;;-145.11;35.06
63033;BME280;49121;38.932;-9.018;2023-04-09T10:03:26;111992.50;;;-145.11;34.71
63033;BME280;49121;38.932;-9.018;2023-04-09T10:05:28;111992.50;;;-145.11;35.29
63033;BME280;49121;38.932;-9.018;2023-04-09T10:07:29;111992.50;;;-145.11;35.49
63033;BME280;49121;38.932;-9.018;2023-04-09T10:09:30;111992.50;;;-145.11;36.49
63033;BME280;49121;38.932;-9.018;2023-04-09T10:11:32;111992.50;;;-145.11;37.38
63033;BME280;49121;38.932;-9.018;2023-04-09T10:18:14;111992.50;;;-145.11;39.71
63033;BME280;49121;38.932;-9.018;2023-04-09T10:20:45;111992.50;;;-145.11;39.54
63033;BME280;49121;38.932;-9.018;2023-04-09T10:22:48;111992.50;;;-145.11;39.82
63033;BME280;49121;38.932;-9.018;2023-04-09T10:24:50;111992.50;;;-145.11;39.58
63033;BME280;49121;38.932;-9.018;2023-04-09T10:26:56;111992.50;;;-145.11;39.82
63033;BME280;49121;38.932;-9.018;2023-04-09T10:29:15;111992.50;;;-145.11;39.74
63033;BME280;49121;38.932;-9.018;2023-04-09T10:31:17;111992.50;;;-145.11;39.81
63033;BME280;49121;38.932;-9.018;2023-04-09T10:33:38;111992.50;;;-145.11;39.99
63033;BME280;49121;38.932;-9.018;2023-04-09T10:35:39;111992.50;;;-145.11;40.18
63033;BME280;49121;38.932;-9.018;2023-04-09T10:37:39;111992.50;;;-145.11;40.57
63033;BME280;49121;38.932;-9.018;2023-04-09T10:40:06;111992.50;;;-145.11;40.59
63033;BME280;49121;38.932;-9.018;2023-04-09T10:42:07;111992.50;;;-145.11;40.59
63033;BME280;49121;38.932;-9.018;2023-04-09T10:44:24;111992.50;;;-145.11;40.63
63033;BME280;49121;38.932;-9.018;2023-04-09T10:46:29;111992.50;;;-145.11;40.96
63033;BME280;49121;38.932;-9.018;2023-04-09T10:48:33;111992.50;;;-145.11;40.81
63033;BME280;49121;38.932;-9.018;2023-04-09T10:50:34;111992.50;;;-145.11;40.38
63033;BME280;49121;38.932;-9.018;2023-04-09T10:52:35;111992.50;;;-145.11;40.41
63033;BME280;49121;38.932;-9.018;2023-04-09T10:54:43;111992.50;;;-145.11;40.16
63033;BME280;49121;38.932;-9.018;2023-04-09T10:59:23;111992.50;;;-145.11;39.75
63033;BME280;49121;38.932;-9.018;2023-04-09T11:01:23;111992.50;;;-145.11;39.87
63033;BME280;49121;38.932;-9.018;2023-04-09T11:10:29;111992.50;;;-145.11;39.13
63033;BME280;49121;38.932;-9.018;2023-04-09T11:14:49;111992.50;;;-145.11;38.27
63033;BME280;49121;38.932;-9.018;2023-04-09T11:16:49;111992.50;;;-145.11;38.08
63033;BME280;49121;38.932;-9.018;2023-04-09T11:18:54;111992.50;;;-145.11;38.17
63033;BME280;49121;38.932;-9.018;2023-04-09T11:23:34;111992.50;;;-145.11;38.17
63033;BME280;49121;38.932;-9.018;2023-04-09T11:25:34;111992.50;;;-145.11;37.46
63033;BME280;49121;38.932;-9.018;2023-04-09T11:27:38;111992.50;;;-145.11;37.17
63033;BME280;49121;38.932;-9.018;2023-04-09T11:29:38;111992.50;;;-145.11;37.63
63033;BME280;49121;38.932;-9.018;2023-04-09T11:31:58;111992.50;;;-145.11;38.12
63033;BME280;49121;38.932;-9.018;2023-04-09T11:33:59;111992.50;;;-145.11;38.15
63033;BME280;49121;38.932;-9.018;2023-04-09T11:38:21;111992.50;;;-145.11;37.48
63033;BME280;49121;38.932;-9.018;2023-04-09T11:40:22;111992.50;;;-145.11;37.39
63033;BME280;49121;38.932;-9.018;2023-04-09T11:42:23;111992.50;;;-145.11;37.28
63033;BME280;49121;38.932;-9.018;2023-04-09T11:44:24;111992.50;;;-145.11;37.40
63033;BME280;49121;38.932;-9.018;2023-04-09T11:49:22;111992.50;;;-145.11;37.03
63033;BME280;49121;38.932;-9.018;2023-04-09T11:51:23;111992.50;;;-145.11;36.99
63033;BME280;49121;38.932;-9.018;2023-04-09T11:53:27;111992.50;;;-145.11;37.03
63033;BME280;49121;38.932;-9.018;2023-04-09T11:55:50;111992.50;;;-145.11;36.68
63033;BME280;49121;38.932;-9.018;2023-04-09T11:57:58;111992.50;;;-145.11;36.39
63033;BME280;49121;38.932;-9.018;2023-04-09T12:00:09;111992.50;;;-145.11;36.85
63033;BME280;49121;38.932;-9.018;2023-04-09T12:05:07;111992.50;;;-145.11;36.88
63033;BME280;49121;38.932;-9.018;2023-04-09T12:07:30;111992.50;;;-145.11;36.84
63033;BME280;49121;38.932;-9.018;2023-04-09T12:09:31;111992.50;;;-145.11;36.53
63033;BME280;49121;38.932;-9.018;2023-04-09T12:11:31;111992.50;;;-145.11;36.81
63033;BME280;49121;38.932;-9.018;2023-04-09T12:13:32;111992.50;;;-145.11;36.79
63033;BME280;49121;38.932;-9.018;2023-04-09T12:18:12;111992.50;;;-145.11;36.48
63033;BME280;49121;38.932;-9.018;2023-04-09T12:20:12;111992.50;;;-145.11;37.25
63033;BME280;49121;38.932;-9.018;2023-04-09T12:24:32;111992.50;;;-145.11;37.23
63033;BME280;49121;38.932;-9.018;2023-04-09T12:26:32;111992.50;;;-145.11;37.57
63033;BME280;49121;38.932;-9.018;2023-04-09T12:28:33;111992.50;;;-145.11;37.28
63033;BME280;49121;38.932;-9.018;2023-04-09T12:30:34;111992.50;;;-145.11;37.22
63033;BME280;49121;38.932;-9.018;2023-04-09T12:32:34;111992.50;;;-145.11;36.85
63033;BME280;49121;38.932;-9.018;2023-04-09T12:34:35;111992.50;;;-145.11;36.76